Opportune — WDD9868 — position and weather

sailwx.info

Track history (hours):
 
Tides and Currents Weather Stations Pressure Air Temp Water Temp Dewpoint Dewpoint Depression Visibility Wind Speed Wind Dir Waves Ship Positions

Opportune

Owner: Axelsson Seiner Inc, Cape May, NJ. More information available from US FCC via Universal Licensing System and Coast Guard Vessel Documentation Center.

Last reported at 2018-Jun-13 13:45 UTC. Time now 2018-Jun-21 08:46 UTC.
Position N 39°43' W 074°06'.

Type: Fishing. MMSI: 367317410.

Date/timePositionNaut miles runAvg speedWind from/ knotsBaromVisibWave heightAir tempDewpointWater temp
2018-Jun-13 13:45N 39°43' W 074°06'2 7.5
2018-Jun-13 13:28N 39°45' W 074°04'2 0.2
2018-Jun-13 05:06N 39°46' W 074°07'0 0.0
2018-Jun-13 03:39N 39°46' W 074°07'0 0.0
2018-Jun-12 23:33N 39°46' W 074°07'0 0.0
2018-Jun-12 21:27N 39°46' W 074°07'2 2.7
2018-Jun-12 20:46N 39°45' W 074°05'310.5
2018-Jun-12 20:30N 39°42' W 074°07'3 0.7
2018-Jun-12 16:39N 39°40' W 074°07'1 4.9
2018-Jun-12 16:30N 39°40' W 074°07'3 5.2
2018-Jun-12 15:57N 39°43' W 074°05'1 1.1
2018-Jun-12 15:29N 39°43' W 074°06'3 1.2
2018-Jun-12 13:17N 39°45' W 074°03'2 5.1
2018-Jun-12 12:54N 39°44' W 074°06'2 0.4
2018-Jun-12 07:41N 39°46' W 074°07'0 0.0
2018-Jun-12 07:14N 39°46' W 074°07'0 0.0
2018-Jun-12 06:59N 39°46' W 074°07'0 0.0
2018-Jun-12 06:29N 39°46' W 074°07'0 0.0
2018-Jun-12 05:23N 39°46' W 074°07'0 0.0
2018-Jun-12 04:59N 39°46' W 074°07'0 0.0
2018-Jun-12 04:23N 39°46' W 074°07'0 0.0
2018-Jun-12 03:02N 39°46' W 074°07'0 0.0
2018-Jun-12 02:44N 39°46' W 074°07'0 0.0
2018-Jun-12 02:26N 39°46' W 074°07'0 0.0
2018-Jun-11 23:05N 39°46' W 074°07'0 0.0
2018-Jun-11 22:47N 39°46' W 074°07'0 0.0
2018-Jun-11 22:17N 39°46' W 074°07'0 0.0
2018-Jun-11 19:53N 39°46' W 074°07'0 0.0
2018-Jun-11 19:29N 39°46' W 074°07'0 0.0
2018-Jun-11 18:47N 39°46' W 074°07'0 0.0
2018-Jun-11 18:23N 39°46' W 074°07'0 0.0
2018-Jun-11 17:53N 39°46' W 074°07'0 0.0
2018-Jun-11 15:47N 39°46' W 074°07'0 0.0
2018-Jun-11 15:17N 39°46' W 074°07'0 0.0
2018-Jun-11 14:23N 39°46' W 074°07'0 0.0
2018-Jun-11 13:59N 39°46' W 074°07'0 0.0
2018-Jun-11 13:29N 39°46' W 074°07'0 0.0
2018-Jun-11 11:47N 39°46' W 074°07'0 0.0
2018-Jun-11 10:23N 39°46' W 074°07'0 0.0
2018-Jun-11 08:59N 39°46' W 074°07'0 0.0
2018-Jun-11 08:17N 39°46' W 074°07'0 0.0
2018-Jun-11 07:53N 39°46' W 074°07'0 0.0
2018-Jun-11 06:56N 39°46' W 074°07'0 0.0
2018-Jun-11 06:29N 39°46' W 074°07'0 0.0
2018-Jun-11 05:23N 39°46' W 074°07'0 0.0
2018-Jun-11 03:41N 39°46' W 074°07'0 0.0
2018-Jun-10 22:56N 39°46' W 074°07'0 0.0
2018-Jun-10 21:35N 39°46' W 074°07'0 0.0
2018-Jun-10 21:23N 39°46' W 074°07'0 0.0
2018-Jun-10 20:59N 39°46' W 074°07'0 0.0
2018-Jun-10 18:41N 39°46' W 074°07'0 0.0
2018-Jun-10 18:29N 39°46' W 074°07'0 0.0
2018-Jun-10 17:59N 39°46' W 074°07'0 0.0
2018-Jun-10 15:35N 39°46' W 074°07'0 0.0
2018-Jun-10 15:11N 39°46' W 074°07'0 0.0
2018-Jun-10 14:41N 39°46' W 074°07'0 0.0
2018-Jun-10 14:11N 39°46' W 074°07'0 0.0
2018-Jun-10 13:11N 39°46' W 074°07'0 0.0
2018-Jun-10 11:53N 39°46' W 074°07'0 0.0
2018-Jun-10 05:08N 39°46' W 074°07'0 0.0
2018-Jun-10 02:41N 39°46' W 074°07'0 0.0
2018-Jun-09 23:05N 39°46' W 074°07'0 0.0
2018-Jun-09 21:23N 39°46' W 074°07'0 0.0
2018-Jun-09 19:41N 39°46' W 074°07'0 0.0
2018-Jun-09 18:35N 39°46' W 074°07'0 0.0
2018-Jun-09 18:29N 39°46' W 074°07'0 0.0
2018-Jun-09 17:47N 39°46' W 074°07'0 0.0
2018-Jun-09 17:20N 39°46' W 074°07'0 0.0
2018-Jun-09 16:50N 39°46' W 074°07'0 0.0
2018-Jun-09 16:23N 39°46' W 074°07'0 0.0
2018-Jun-09 15:59N 39°46' W 074°07'0 0.0
2018-Jun-09 14:53N 39°46' W 074°07'0 0.0
2018-Jun-09 14:23N 39°46' W 074°07'0 0.0
2018-Jun-09 13:05N 39°46' W 074°07'0 0.0
2018-Jun-09 12:47N 39°46' W 074°07'0 0.0
2018-Jun-09 12:29N 39°46' W 074°07'0 0.0
2018-Jun-09 11:32N 39°46' W 074°07'0 0.0
2018-Jun-09 11:29N 39°46' W 074°07'0 0.0
2018-Jun-09 10:53N 39°46' W 074°07'0 0.0
2018-Jun-09 08:53N 39°46' W 074°07'0 0.0
2018-Jun-09 08:29N 39°46' W 074°07'0 0.0
2018-Jun-09 07:17N 39°46' W 074°07'0 0.0
2018-Jun-09 06:47N 39°46' W 074°07'0 0.0
2018-Jun-09 06:29N 39°46' W 074°07'0 0.0
2018-Jun-09 05:53N 39°46' W 074°07'0 0.0
2018-Jun-09 03:41N 39°46' W 074°07'0 0.0
2018-Jun-09 03:23N 39°46' W 074°07'0 0.0
2018-Jun-09 02:41N 39°46' W 074°07'0 0.0
2018-Jun-09 00:53N 39°46' W 074°07'0 0.0
2018-Jun-09 00:29N 39°46' W 074°07'0 0.0
2018-Jun-08 23:59N 39°46' W 074°07'0 0.0
2018-Jun-08 23:29N 39°46' W 074°07'0 0.0
2018-Jun-08 22:59N 39°46' W 074°07'0 0.0
2018-Jun-08 22:23N 39°46' W 074°07'0 0.0
2018-Jun-08 21:59N 39°46' W 074°07'0 0.0
2018-Jun-08 20:53N 39°46' W 074°07'0 0.0
2018-Jun-08 19:47N 39°46' W 074°07'0 0.0
2018-Jun-08 19:29N 39°46' W 074°07'0 0.0
2018-Jun-08 18:59N 39°46' W 074°07'0 0.0
2018-Jun-08 17:47N 39°46' W 074°07'0 0.0
2018-Jun-08 17:29N 39°46' W 074°07'0 0.0
2018-Jun-08 16:35N 39°46' W 074°07'0 0.0
2018-Jun-08 16:29N 39°46' W 074°07'0 0.0
2018-Jun-08 15:53N 39°46' W 074°07'0 0.0
2018-Jun-08 15:29N 39°46' W 074°07'0 0.0
2018-Jun-08 14:59N 39°46' W 074°07'0 0.0
2018-Jun-08 14:17N 39°46' W 074°07'0 0.0
2018-Jun-08 13:41N 39°46' W 074°07'0 0.0
2018-Jun-08 13:17N 39°46' W 074°07'0 0.0
2018-Jun-08 12:53N 39°46' W 074°07'0 0.0
2018-Jun-08 12:11N 39°46' W 074°07'0 0.0
2018-Jun-08 11:59N 39°46' W 074°07'0 0.0
2018-Jun-08 11:23N 39°46' W 074°07'0 0.0
2018-Jun-08 09:41N 39°46' W 074°07'0 0.0
2018-Jun-08 09:29N 39°46' W 074°07'0 0.0
2018-Jun-08 08:17N 39°46' W 074°07'0 0.0
2018-Jun-08 07:59N 39°46' W 074°07'0 0.0
2018-Jun-08 07:29N 39°46' W 074°07'0 0.0
2018-Jun-08 06:50N 39°46' W 074°07'0 0.0
2018-Jun-08 06:23N 39°46' W 074°07'0 0.0
2018-Jun-08 05:47N 39°46' W 074°07'0 0.0
2018-Jun-08 05:17N 39°46' W 074°07'0 0.0
2018-Jun-08 04:53N 39°46' W 074°07'0 0.0
2018-Jun-08 04:17N 39°46' W 074°07'0 0.0
2018-Jun-08 03:59N 39°46' W 074°07'0 0.0
2018-Jun-08 03:29N 39°46' W 074°07'0 0.0
2018-Jun-08 01:59N 39°46' W 074°07'0 0.0
2018-Jun-08 01:17N 39°46' W 074°07'0 0.0
2018-Jun-08 00:11N 39°46' W 074°07'0 0.0
2018-Jun-07 23:53N 39°46' W 074°07'0 0.0
2018-Jun-07 22:53N 39°46' W 074°07'0 0.0
2018-Jun-07 22:23N 39°46' W 074°07'0 0.0
2018-Jun-07 21:59N 39°46' W 074°07'0 0.0
2018-Jun-07 19:23N 39°46' W 074°07'0 0.0
2018-Jun-07 17:35N 39°46' W 074°07'0 0.0
2018-Jun-07 17:17N 39°46' W 074°07'2 0.3
2018-Jun-07 10:43N 39°46' W 074°04'2 7.0
2018-Jun-07 10:27N 39°44' W 074°05'4 7.6
2018-Jun-07 09:53N 39°40' W 074°06'2 4.0
2018-Jun-07 09:24N 39°39' W 074°08'57 1.3
2018-Jun-05 12:29N 38°59' W 074°60'6 3.5
2018-Jun-05 10:45N 39°05' W 074°60'2 6.8
2018-Jun-05 10:28N 39°04' W 074°58'  
Track history (hours):
 
Tides and Currents Weather Stations Pressure Air Temp Water Temp Dewpoint Dewpoint Depression Visibility Wind Speed Wind Dir Waves Ship Positions

Opportune

Owner: Axelsson Seiner Inc, Cape May, NJ. More information available from US FCC via Universal Licensing System and Coast Guard Vessel Documentation Center.

Last reported at 2018-Jun-13 13:45 UTC. Time now 2018-Jun-21 08:46 UTC.
Position N 39°43' W 074°06'.

Type: Fishing. MMSI: 367317410.

Date/timePositionNaut miles runAvg speedWind from/ knotsBaromVisibWave heightAir tempDewpointWater temp
2018-Jun-13 13:45N 39°43' W 074°06'2 7.5
2018-Jun-13 13:28N 39°45' W 074°04'2 0.2
2018-Jun-13 05:06N 39°46' W 074°07'0 0.0
2018-Jun-13 03:39N 39°46' W 074°07'0 0.0
2018-Jun-12 23:33N 39°46' W 074°07'0 0.0
2018-Jun-12 21:27N 39°46' W 074°07'2 2.7
2018-Jun-12 20:46N 39°45' W 074°05'310.5
2018-Jun-12 20:30N 39°42' W 074°07'3 0.7
2018-Jun-12 16:39N 39°40' W 074°07'1 4.9
2018-Jun-12 16:30N 39°40' W 074°07'3 5.2
2018-Jun-12 15:57N 39°43' W 074°05'1 1.1
2018-Jun-12 15:29N 39°43' W 074°06'3 1.2
2018-Jun-12 13:17N 39°45' W 074°03'2 5.1
2018-Jun-12 12:54N 39°44' W 074°06'2 0.4
2018-Jun-12 07:41N 39°46' W 074°07'0 0.0
2018-Jun-12 07:14N 39°46' W 074°07'0 0.0
2018-Jun-12 06:59N 39°46' W 074°07'0 0.0
2018-Jun-12 06:29N 39°46' W 074°07'0 0.0
2018-Jun-12 05:23N 39°46' W 074°07'0 0.0
2018-Jun-12 04:59N 39°46' W 074°07'0 0.0
2018-Jun-12 04:23N 39°46' W 074°07'0 0.0
2018-Jun-12 03:02N 39°46' W 074°07'0 0.0
2018-Jun-12 02:44N 39°46' W 074°07'0 0.0
2018-Jun-12 02:26N 39°46' W 074°07'0 0.0
2018-Jun-11 23:05N 39°46' W 074°07'0 0.0
2018-Jun-11 22:47N 39°46' W 074°07'0 0.0
2018-Jun-11 22:17N 39°46' W 074°07'0 0.0
2018-Jun-11 19:53N 39°46' W 074°07'0 0.0
2018-Jun-11 19:29N 39°46' W 074°07'0 0.0
2018-Jun-11 18:47N 39°46' W 074°07'0 0.0
2018-Jun-11 18:23N 39°46' W 074°07'0 0.0
2018-Jun-11 17:53N 39°46' W 074°07'0 0.0
2018-Jun-11 15:47N 39°46' W 074°07'0 0.0
2018-Jun-11 15:17N 39°46' W 074°07'0 0.0
2018-Jun-11 14:23N 39°46' W 074°07'0 0.0
2018-Jun-11 13:59N 39°46' W 074°07'0 0.0
2018-Jun-11 13:29N 39°46' W 074°07'0 0.0
2018-Jun-11 11:47N 39°46' W 074°07'0 0.0
2018-Jun-11 10:23N 39°46' W 074°07'0 0.0
2018-Jun-11 08:59N 39°46' W 074°07'0 0.0
2018-Jun-11 08:17N 39°46' W 074°07'0 0.0
2018-Jun-11 07:53N 39°46' W 074°07'0 0.0
2018-Jun-11 06:56N 39°46' W 074°07'0 0.0
2018-Jun-11 06:29N 39°46' W 074°07'0 0.0
2018-Jun-11 05:23N 39°46' W 074°07'0 0.0
2018-Jun-11 03:41N 39°46' W 074°07'0 0.0
2018-Jun-10 22:56N 39°46' W 074°07'0 0.0
2018-Jun-10 21:35N 39°46' W 074°07'0 0.0
2018-Jun-10 21:23N 39°46' W 074°07'0 0.0
2018-Jun-10 20:59N 39°46' W 074°07'0 0.0
2018-Jun-10 18:41N 39°46' W 074°07'0 0.0
2018-Jun-10 18:29N 39°46' W 074°07'0 0.0
2018-Jun-10 17:59N 39°46' W 074°07'0 0.0
2018-Jun-10 15:35N 39°46' W 074°07'0 0.0
2018-Jun-10 15:11N 39°46' W 074°07'0 0.0
2018-Jun-10 14:41N 39°46' W 074°07'0 0.0
2018-Jun-10 14:11N 39°46' W 074°07'0 0.0
2018-Jun-10 13:11N 39°46' W 074°07'0 0.0
2018-Jun-10 11:53N 39°46' W 074°07'0 0.0
2018-Jun-10 05:08N 39°46' W 074°07'0 0.0
2018-Jun-10 02:41N 39°46' W 074°07'0 0.0
2018-Jun-09 23:05N 39°46' W 074°07'0 0.0
2018-Jun-09 21:23N 39°46' W 074°07'0 0.0
2018-Jun-09 19:41N 39°46' W 074°07'0 0.0
2018-Jun-09 18:35N 39°46' W 074°07'0 0.0
2018-Jun-09 18:29N 39°46' W 074°07'0 0.0
2018-Jun-09 17:47N 39°46' W 074°07'0 0.0
2018-Jun-09 17:20N 39°46' W 074°07'0 0.0
2018-Jun-09 16:50N 39°46' W 074°07'0 0.0
2018-Jun-09 16:23N 39°46' W 074°07'0 0.0
2018-Jun-09 15:59N 39°46' W 074°07'0 0.0
2018-Jun-09 14:53N 39°46' W 074°07'0 0.0
2018-Jun-09 14:23N 39°46' W 074°07'0 0.0
2018-Jun-09 13:05N 39°46' W 074°07'0 0.0
2018-Jun-09 12:47N 39°46' W 074°07'0 0.0
2018-Jun-09 12:29N 39°46' W 074°07'0 0.0
2018-Jun-09 11:32N 39°46' W 074°07'0 0.0
2018-Jun-09 11:29N 39°46' W 074°07'0 0.0
2018-Jun-09 10:53N 39°46' W 074°07'0 0.0
2018-Jun-09 08:53N 39°46' W 074°07'0 0.0
2018-Jun-09 08:29N 39°46' W 074°07'0 0.0
2018-Jun-09 07:17N 39°46' W 074°07'0 0.0
2018-Jun-09 06:47N 39°46' W 074°07'0 0.0
2018-Jun-09 06:29N 39°46' W 074°07'0 0.0
2018-Jun-09 05:53N 39°46' W 074°07'0 0.0
2018-Jun-09 03:41N 39°46' W 074°07'0 0.0
2018-Jun-09 03:23N 39°46' W 074°07'0 0.0
2018-Jun-09 02:41N 39°46' W 074°07'0 0.0
2018-Jun-09 00:53N 39°46' W 074°07'0 0.0
2018-Jun-09 00:29N 39°46' W 074°07'0 0.0
2018-Jun-08 23:59N 39°46' W 074°07'0 0.0
2018-Jun-08 23:29N 39°46' W 074°07'0 0.0
2018-Jun-08 22:59N 39°46' W 074°07'0 0.0
2018-Jun-08 22:23N 39°46' W 074°07'0 0.0
2018-Jun-08 21:59N 39°46' W 074°07'0 0.0
2018-Jun-08 20:53N 39°46' W 074°07'0 0.0
2018-Jun-08 19:47N 39°46' W 074°07'0 0.0
2018-Jun-08 19:29N 39°46' W 074°07'0 0.0
2018-Jun-08 18:59N 39°46' W 074°07'0 0.0
2018-Jun-08 17:47N 39°46' W 074°07'0 0.0
2018-Jun-08 17:29N 39°46' W 074°07'0 0.0
2018-Jun-08 16:35N 39°46' W 074°07'0 0.0
2018-Jun-08 16:29N 39°46' W 074°07'0 0.0
2018-Jun-08 15:53N 39°46' W 074°07'0 0.0
2018-Jun-08 15:29N 39°46' W 074°07'0 0.0
2018-Jun-08 14:59N 39°46' W 074°07'0 0.0
2018-Jun-08 14:17N 39°46' W 074°07'0 0.0
2018-Jun-08 13:41N 39°46' W 074°07'0 0.0
2018-Jun-08 13:17N 39°46' W 074°07'0 0.0
2018-Jun-08 12:53N 39°46' W 074°07'0 0.0
2018-Jun-08 12:11N 39°46' W 074°07'0 0.0
2018-Jun-08 11:59N 39°46' W 074°07'0 0.0
2018-Jun-08 11:23N 39°46' W 074°07'0 0.0
2018-Jun-08 09:41N 39°46' W 074°07'0 0.0
2018-Jun-08 09:29N 39°46' W 074°07'0 0.0
2018-Jun-08 08:17N 39°46' W 074°07'0 0.0
2018-Jun-08 07:59N 39°46' W 074°07'0 0.0
2018-Jun-08 07:29N 39°46' W 074°07'0 0.0
2018-Jun-08 06:50N 39°46' W 074°07'0 0.0
2018-Jun-08 06:23N 39°46' W 074°07'0 0.0
2018-Jun-08 05:47N 39°46' W 074°07'0 0.0
2018-Jun-08 05:17N 39°46' W 074°07'0 0.0
2018-Jun-08 04:53N 39°46' W 074°07'0 0.0
2018-Jun-08 04:17N 39°46' W 074°07'0 0.0
2018-Jun-08 03:59N 39°46' W 074°07'0 0.0
2018-Jun-08 03:29N 39°46' W 074°07'0 0.0
2018-Jun-08 01:59N 39°46' W 074°07'0 0.0
2018-Jun-08 01:17N 39°46' W 074°07'0 0.0
2018-Jun-08 00:11N 39°46' W 074°07'0 0.0
2018-Jun-07 23:53N 39°46' W 074°07'0 0.0
2018-Jun-07 22:53N 39°46' W 074°07'0 0.0
2018-Jun-07 22:23N 39°46' W 074°07'0 0.0
2018-Jun-07 21:59N 39°46' W 074°07'0 0.0
2018-Jun-07 19:23N 39°46' W 074°07'0 0.0
2018-Jun-07 17:35N 39°46' W 074°07'0 0.0
2018-Jun-07 17:17N 39°46' W 074°07'2 0.3
2018-Jun-07 10:43N 39°46' W 074°04'2 7.0
2018-Jun-07 10:27N 39°44' W 074°05'4 7.6
2018-Jun-07 09:53N 39°40' W 074°06'2 4.0
2018-Jun-07 09:24N 39°39' W 074°08'57 1.3
2018-Jun-05 12:29N 38°59' W 074°60'6 3.5
2018-Jun-05 10:45N 39°05' W 074°60'2 6.8
2018-Jun-05 10:28N 39°04' W 074°58'  

Dump ship's entire track history